sensor_id;sensor_type;location;lat;lon;timestamp;temperature;humidity
37088;DHT22;23002;52.676;6.432;2023-09-19T00:00:22;16.40;99.90
37088;DHT22;23002;52.676;6.432;2023-09-19T00:02:58;16.30;99.90
37088;DHT22;23002;52.676;6.432;2023-09-19T00:05:29;16.00;99.90
37088;DHT22;23002;52.676;6.432;2023-09-19T00:07:57;16.10;99.90
37088;DHT22;23002;52.676;6.432;2023-09-19T00:10:28;16.10;99.90
37088;DHT22;23002;52.676;6.432;2023-09-19T00:13:04;16.10;99.90
37088;DHT22;23002;52.676;6.432;2023-09-19T00:15:48;16.00;99.90
37088;DHT22;23002;52.676;6.432;2023-09-19T00:18:17;16.10;99.90
37088;DHT22;23002;52.676;6.432;2023-09-19T00:20:43;16.00;99.90
37088;DHT22;23002;52.676;6.432;2023-09-19T00:23:14;16.00;99.90
37088;DHT22;23002;52.676;6.432;2023-09-19T00:25:41;16.00;99.90
37088;DHT22;23002;52.676;6.432;2023-09-19T00:28:08;16.00;99.90
37088;DHT22;23002;52.676;6.432;2023-09-19T00:30:36;15.90;99.90
37088;DHT22;23002;52.676;6.432;2023-09-19T00:33:05;15.90;99.90
37088;DHT22;23002;52.676;6.432;2023-09-19T00:35:37;15.90;99.90
37088;DHT22;23002;52.676;6.432;2023-09-19T00:38:04;15.90;99.90
37088;DHT22;23002;52.676;6.432;2023-09-19T00:40:33;15.80;99.90
37088;DHT22;23002;52.676;6.432;2023-09-19T00:43:00;15.70;99.90
37088;DHT22;23002;52.676;6.432;2023-09-19T00:45:27;15.70;99.90
37088;DHT22;23002;52.676;6.432;2023-09-19T00:47:55;15.80;99.90
37088;DHT22;23002;52.676;6.432;2023-09-19T00:50:25;15.70;99.90
37088;DHT22;23002;52.676;6.432;2023-09-19T00:52:56;15.90;99.90
37088;DHT22;23002;52.676;6.432;2023-09-19T00:55:24;15.80;99.90
37088;DHT22;23002;52.676;6.432;2023-09-19T00:57:51;15.60;99.90
37088;DHT22;23002;52.676;6.432;2023-09-19T01:00:19;15.60;99.90
37088;DHT22;23002;52.676;6.432;2023-09-19T01:02:47;15.70;99.90
37088;DHT22;23002;52.676;6.432;2023-09-19T01:05:15;15.80;99.90
37088;DHT22;23002;52.676;6.432;2023-09-19T01:07:42;15.80;99.90
37088;DHT22;23002;52.676;6.432;2023-09-19T01:10:19;15.90;99.90
37088;DHT22;23002;52.676;6.432;2023-09-19T01:15:59;15.80;99.90
37088;DHT22;23002;52.676;6.432;2023-09-19T01:19:00;15.80;99.90
37088;DHT22;23002;52.676;6.432;2023-09-19T01:24:53;15.80;99.90
37088;DHT22;23002;52.676;6.432;2023-09-19T01:27:53;15.60;99.90
37088;DHT22;23002;52.676;6.432;2023-09-19T01:30:27;15.80;99.90
37088;DHT22;23002;52.676;6.432;2023-09-19T01:32:56;15.70;99.90
37088;DHT22;23002;52.676;6.432;2023-09-19T01:35:24;15.60;99.90
37088;DHT22;23002;52.676;6.432;2023-09-19T01:37:51;15.50;99.90
37088;DHT22;23002;52.676;6.432;2023-09-19T01:40:20;15.60;99.90
37088;DHT22;23002;52.676;6.432;2023-09-19T01:42:56;15.60;99.90
37088;DHT22;23002;52.676;6.432;2023-09-19T01:48:23;15.40;99.90
37088;DHT22;23002;52.676;6.432;2023-09-19T01:50:59;15.40;99.90
37088;DHT22;23002;52.676;6.432;2023-09-19T01:53:59;15.40;99.90
37088;DHT22;23002;52.676;6.432;2023-09-19T01:56:34;15.30;99.90
37088;DHT22;23002;52.676;6.432;2023-09-19T01:59:07;15.30;99.90
37088;DHT22;23002;52.676;6.432;2023-09-19T02:01:37;15.50;99.90
37088;DHT22;23002;52.676;6.432;2023-09-19T02:04:05;15.30;99.90
37088;DHT22;23002;52.676;6.432;2023-09-19T02:06:32;15.30;99.90
37088;DHT22;23002;52.676;6.432;2023-09-19T02:09:00;15.30;99.90
37088;DHT22;23002;52.676;6.432;2023-09-19T02:11:27;15.30;99.90
37088;DHT22;23002;52.676;6.432;2023-09-19T02:13:54;15.40;99.90
37088;DHT22;23002;52.676;6.432;2023-09-19T02:16:21;15.30;99.90
37088;DHT22;23002;52.676;6.432;2023-09-19T02:18:49;15.20;99.90
37088;DHT22;23002;52.676;6.432;2023-09-19T02:21:19;15.20;99.90
37088;DHT22;23002;52.676;6.432;2023-09-19T02:23:48;15.20;99.90
37088;DHT22;23002;52.676;6.432;2023-09-19T02:26:15;15.20;99.90
37088;DHT22;23002;52.676;6.432;2023-09-19T02:28:42;15.20;99.90
37088;DHT22;23002;52.676;6.432;2023-09-19T02:31:09;15.20;99.90
37088;DHT22;23002;52.676;6.432;2023-09-19T02:33:37;15.20;99.90
37088;DHT22;23002;52.676;6.432;2023-09-19T02:36:05;15.10;99.90
37088;DHT22;23002;52.676;6.432;2023-09-19T02:38:31;15.10;99.90
37088;DHT22;23002;52.676;6.432;2023-09-19T02:40:58;15.20;99.90
37088;DHT22;23002;52.676;6.432;2023-09-19T02:43:25;15.20;99.90
37088;DHT22;23002;52.676;6.432;2023-09-19T02:45:52;15.20;99.90
37088;DHT22;23002;52.676;6.432;2023-09-19T02:48:23;15.30;99.90
37088;DHT22;23002;52.676;6.432;2023-09-19T02:50:51;15.20;99.90
37088;DHT22;23002;52.676;6.432;2023-09-19T02:53:18;15.20;99.90
37088;DHT22;23002;52.676;6.432;2023-09-19T02:55:46;15.10;99.90
37088;DHT22;23002;52.676;6.432;2023-09-19T02:58:13;15.20;99.90
37088;DHT22;23002;52.676;6.432;2023-09-19T03:00:41;15.30;99.90
37088;DHT22;23002;52.676;6.432;2023-09-19T03:03:14;15.40;99.90
37088;DHT22;23002;52.676;6.432;2023-09-19T03:05:43;15.30;99.90
37088;DHT22;23002;52.676;6.432;2023-09-19T03:08:14;15.40;99.90
37088;DHT22;23002;52.676;6.432;2023-09-19T03:10:46;15.40;99.90
37088;DHT22;23002;52.676;6.432;2023-09-19T03:13:14;15.30;99.90
37088;DHT22;23002;52.676;6.432;2023-09-19T03:15:42;15.40;99.90
37088;DHT22;23002;52.676;6.432;2023-09-19T03:18:12;15.30;99.90
37088;DHT22;23002;52.676;6.432;2023-09-19T03:20:40;15.20;99.90
37088;DHT22;23002;52.676;6.432;2023-09-19T03:23:06;15.50;99.90
37088;DHT22;23002;52.676;6.432;2023-09-19T03:25:34;15.50;99.90
37088;DHT22;23002;52.676;6.432;2023-09-19T03:28:03;15.50;99.90
37088;DHT22;23002;52.676;6.432;2023-09-19T03:30:32;15.50;99.90
37088;DHT22;23002;52.676;6.432;2023-09-19T03:33:00;15.70;99.90
37088;DHT22;23002;52.676;6.432;2023-09-19T03:35:27;15.70;99.90
37088;DHT22;23002;52.676;6.432;2023-09-19T03:37:54;15.70;99.90
37088;DHT22;23002;52.676;6.432;2023-09-19T03:40:21;15.60;99.90
37088;DHT22;23002;52.676;6.432;2023-09-19T03:42:49;15.60;99.90
37088;DHT22;23002;52.676;6.432;2023-09-19T03:45:16;15.80;99.90
37088;DHT22;23002;52.676;6.432;2023-09-19T03:47:45;15.80;99.90
37088;DHT22;23002;52.676;6.432;2023-09-19T03:50:14;15.90;99.90
37088;DHT22;23002;52.676;6.432;2023-09-19T03:52:44;15.90;99.90
37088;DHT22;23002;52.676;6.432;2023-09-19T03:55:11;15.90;99.90
37088;DHT22;23002;52.676;6.432;2023-09-19T03:57:38;15.80;99.90
37088;DHT22;23002;52.676;6.432;2023-09-19T04:00:05;15.80;99.90
37088;DHT22;23002;52.676;6.432;2023-09-19T04:02:38;15.80;99.90
37088;DHT22;23002;52.676;6.432;2023-09-19T04:05:06;15.80;99.90
37088;DHT22;23002;52.676;6.432;2023-09-19T04:07:33;15.70;99.90
37088;DHT22;23002;52.676;6.432;2023-09-19T04:10:01;15.60;99.90
37088;DHT22;23002;52.676;6.432;2023-09-19T04:12:29;15.60;99.90
37088;DHT22;23002;52.676;6.432;2023-09-19T04:14:55;15.50;99.90
37088;DHT22;23002;52.676;6.432;2023-09-19T04:17:22;15.50;99.90
37088;DHT22;23002;52.676;6.432;2023-09-19T04:19:50;15.50;99.90
37088;DHT22;23002;52.676;6.432;2023-09-19T04:24:44;15.40;99.90
37088;DHT22;23002;52.676;6.432;2023-09-19T04:27:11;15.30;99.90
37088;DHT22;23002;52.676;6.432;2023-09-19T04:29:41;15.20;99.90
37088;DHT22;23002;52.676;6.432;2023-09-19T04:32:11;15.20;99.90
37088;DHT22;23002;52.676;6.432;2023-09-19T04:34:39;15.30;99.90
37088;DHT22;23002;52.676;6.432;2023-09-19T04:37:06;15.00;99.90
37088;DHT22;23002;52.676;6.432;2023-09-19T04:39:33;15.00;99.90
37088;DHT22;23002;52.676;6.432;2023-09-19T04:42:01;15.10;99.90
37088;DHT22;23002;52.676;6.432;2023-09-19T04:44:30;15.10;99.90
37088;DHT22;23002;52.676;6.432;2023-09-19T04:46:56;15.10;99.90
37088;DHT22;23002;52.676;6.432;2023-09-19T04:49:23;15.00;99.90
37088;DHT22;23002;52.676;6.432;2023-09-19T04:51:50;15.10;99.90
37088;DHT22;23002;52.676;6.432;2023-09-19T04:54:17;15.10;99.90
37088;DHT22;23002;52.676;6.432;2023-09-19T04:56:44;14.90;99.90
37088;DHT22;23002;52.676;6.432;2023-09-19T04:59:11;14.80;99.90
37088;DHT22;23002;52.676;6.432;2023-09-19T05:01:38;14.70;99.90
37088;DHT22;23002;52.676;6.432;2023-09-19T05:04:05;14.80;99.90
37088;DHT22;23002;52.676;6.432;2023-09-19T05:06:32;14.90;99.90
37088;DHT22;23002;52.676;6.432;2023-09-19T05:09:00;14.70;99.90
37088;DHT22;23002;52.676;6.432;2023-09-19T05:11:27;14.70;99.90
37088;DHT22;23002;52.676;6.432;2023-09-19T05:13:56;14.60;99.90
37088;DHT22;23002;52.676;6.432;2023-09-19T05:16:23;14.70;99.90
37088;DHT22;23002;52.676;6.432;2023-09-19T05:18:50;14.70;99.90
37088;DHT22;23002;52.676;6.432;2023-09-19T05:21:17;14.50;99.90
37088;DHT22;23002;52.676;6.432;2023-09-19T05:23:45;14.60;99.90
37088;DHT22;23002;52.676;6.432;2023-09-19T05:26:11;14.70;99.90
37088;DHT22;23002;52.676;6.432;2023-09-19T05:28:39;14.70;99.90
37088;DHT22;23002;52.676;6.432;2023-09-19T05:31:06;14.70;99.90
37088;DHT22;23002;52.676;6.432;2023-09-19T05:33:32;14.60;99.90
37088;DHT22;23002;52.676;6.432;2023-09-19T05:36:00;14.50;99.90
37088;DHT22;23002;52.676;6.432;2023-09-19T05:38:26;14.50;99.90
37088;DHT22;23002;52.676;6.432;2023-09-19T05:40:54;14.50;99.90
37088;DHT22;23002;52.676;6.432;2023-09-19T05:43:21;14.40;99.90
37088;DHT22;23002;52.676;6.432;2023-09-19T05:45:48;14.50;99.90
37088;DHT22;23002;52.676;6.432;2023-09-19T05:48:19;14.40;99.90
37088;DHT22;23002;52.676;6.432;2023-09-19T05:50:47;14.50;99.90
37088;DHT22;23002;52.676;6.432;2023-09-19T05:53:15;14.60;99.90
37088;DHT22;23002;52.676;6.432;2023-09-19T05:55:42;14.70;99.90
37088;DHT22;23002;52.676;6.432;2023-09-19T05:58:10;14.80;99.90
37088;DHT22;23002;52.676;6.432;2023-09-19T06:00:37;15.00;99.90
37088;DHT22;23002;52.676;6.432;2023-09-19T06:03:06;15.30;99.90
37088;DHT22;23002;52.676;6.432;2023-09-19T06:05:33;15.50;99.90
37088;DHT22;23002;52.676;6.432;2023-09-19T06:08:00;15.30;99.90
37088;DHT22;23002;52.676;6.432;2023-09-19T06:10:28;15.40;99.90
37088;DHT22;23002;52.676;6.432;2023-09-19T06:12:56;15.50;99.90
37088;DHT22;23002;52.676;6.432;2023-09-19T06:15:25;15.60;99.90
37088;DHT22;23002;52.676;6.432;2023-09-19T06:17:55;16.10;99.90
37088;DHT22;23002;52.676;6.432;2023-09-19T06:20:23;16.40;99.90
37088;DHT22;23002;52.676;6.432;2023-09-19T06:22:52;16.40;99.90
37088;DHT22;23002;52.676;6.432;2023-09-19T06:25:20;16.60;99.90
37088;DHT22;23002;52.676;6.432;2023-09-19T06:27:48;16.70;99.90
37088;DHT22;23002;52.676;6.432;2023-09-19T06:30:15;16.40;99.90
37088;DHT22;23002;52.676;6.432;2023-09-19T06:35:15;16.40;99.90
37088;DHT22;23002;52.676;6.432;2023-09-19T06:37:42;16.40;99.90
37088;DHT22;23002;52.676;6.432;2023-09-19T06:40:11;16.10;99.90
37088;DHT22;23002;52.676;6.432;2023-09-19T06:42:45;15.90;99.90
37088;DHT22;23002;52.676;6.432;2023-09-19T06:45:13;15.80;99.90
37088;DHT22;23002;52.676;6.432;2023-09-19T06:47:45;15.90;99.90
37088;DHT22;23002;52.676;6.432;2023-09-19T06:50:12;15.80;99.90
37088;DHT22;23002;52.676;6.432;2023-09-19T06:52:41;16.00;99.90
37088;DHT22;23002;52.676;6.432;2023-09-19T06:55:08;16.20;99.90
37088;DHT22;23002;52.676;6.432;2023-09-19T06:57:38;16.40;99.90
37088;DHT22;23002;52.676;6.432;2023-09-19T07:00:07;16.80;99.90
37088;DHT22;23002;52.676;6.432;2023-09-19T07:02:42;16.50;99.90
37088;DHT22;23002;52.676;6.432;2023-09-19T07:05:09;16.60;99.90
37088;DHT22;23002;52.676;6.432;2023-09-19T07:10:04;18.00;99.90
37088;DHT22;23002;52.676;6.432;2023-09-19T07:12:37;18.50;99.90
37088;DHT22;23002;52.676;6.432;2023-09-19T07:15:05;18.60;99.90
37088;DHT22;23002;52.676;6.432;2023-09-19T07:17:32;18.70;99.90
37088;DHT22;23002;52.676;6.432;2023-09-19T07:19:59;18.40;99.90
37088;DHT22;23002;52.676;6.432;2023-09-19T07:22:27;18.60;99.90
37088;DHT22;23002;52.676;6.432;2023-09-19T07:24:54;19.30;99.90
37088;DHT22;23002;52.676;6.432;2023-09-19T07:27:21;19.90;99.90
37088;DHT22;23002;52.676;6.432;2023-09-19T07:29:48;20.50;99.90
37088;DHT22;23002;52.676;6.432;2023-09-19T07:32:18;20.40;99.90
37088;DHT22;23002;52.676;6.432;2023-09-19T07:34:45;19.70;99.90
37088;DHT22;23002;52.676;6.432;2023-09-19T07:37:12;19.60;99.90
37088;DHT22;23002;52.676;6.432;2023-09-19T07:39:42;19.30;99.90
37088;DHT22;23002;52.676;6.432;2023-09-19T07:42:09;19.30;99.90
37088;DHT22;23002;52.676;6.432;2023-09-19T07:44:38;20.10;99.90
37088;DHT22;23002;52.676;6.432;2023-09-19T07:47:05;20.80;99.90
37088;DHT22;23002;52.676;6.432;2023-09-19T07:49:31;21.30;99.90
37088;DHT22;23002;52.676;6.432;2023-09-19T07:51:58;21.20;99.90
37088;DHT22;23002;52.676;6.432;2023-09-19T07:54:25;20.90;99.90
37088;DHT22;23002;52.676;6.432;2023-09-19T07:56:53;20.90;99.90
37088;DHT22;23002;52.676;6.432;2023-09-19T07:59:20;21.20;99.90
37088;DHT22;23002;52.676;6.432;2023-09-19T08:01:47;21.20;99.90
37088;DHT22;23002;52.676;6.432;2023-09-19T08:04:14;20.80;99.90
37088;DHT22;23002;52.676;6.432;2023-09-19T08:06:41;21.00;99.90
37088;DHT22;23002;52.676;6.432;2023-09-19T08:09:08;21.70;99.90
37088;DHT22;23002;52.676;6.432;2023-09-19T08:11:37;21.80;99.90
37088;DHT22;23002;52.676;6.432;2023-09-19T08:14:05;22.20;99.90
37088;DHT22;23002;52.676;6.432;2023-09-19T08:16:35;22.60;99.90
37088;DHT22;23002;52.676;6.432;2023-09-19T08:19:02;22.40;99.90
37088;DHT22;23002;52.676;6.432;2023-09-19T08:21:29;22.40;99.90
37088;DHT22;23002;52.676;6.432;2023-09-19T08:23:56;22.30;99.90
37088;DHT22;23002;52.676;6.432;2023-09-19T08:26:23;22.30;99.90
37088;DHT22;23002;52.676;6.432;2023-09-19T08:28:51;22.80;99.90
37088;DHT22;23002;52.676;6.432;2023-09-19T08:31:18;22.30;99.90
37088;DHT22;23002;52.676;6.432;2023-09-19T08:33:45;22.30;99.90
37088;DHT22;23002;52.676;6.432;2023-09-19T08:36:15;21.60;99.90
37088;DHT22;23002;52.676;6.432;2023-09-19T08:38:42;21.30;99.90
37088;DHT22;23002;52.676;6.432;2023-09-19T08:41:09;21.30;99.90
37088;DHT22;23002;52.676;6.432;2023-09-19T08:43:36;21.40;99.90
37088;DHT22;23002;52.676;6.432;2023-09-19T08:46:10;21.60;99.90
37088;DHT22;23002;52.676;6.432;2023-09-19T08:48:47;21.70;99.90
37088;DHT22;23002;52.676;6.432;2023-09-19T08:51:43;21.90;99.90
37088;DHT22;23002;52.676;6.432;2023-09-19T08:54:31;22.00;99.90
37088;DHT22;23002;52.676;6.432;2023-09-19T08:57:00;22.30;99.90
37088;DHT22;23002;52.676;6.432;2023-09-19T08:59:30;23.20;99.90
37088;DHT22;23002;52.676;6.432;2023-09-19T09:01:58;23.60;99.90
37088;DHT22;23002;52.676;6.432;2023-09-19T09:04:25;23.70;99.90
37088;DHT22;23002;52.676;6.432;2023-09-19T09:06:53;24.40;99.90
37088;DHT22;23002;52.676;6.432;2023-09-19T09:09:21;24.30;99.90
37088;DHT22;23002;52.676;6.432;2023-09-19T09:11:49;24.60;99.90
37088;DHT22;23002;52.676;6.432;2023-09-19T09:14:20;24.90;99.90
37088;DHT22;23002;52.676;6.432;2023-09-19T09:16:47;25.40;99.90
37088;DHT22;23002;52.676;6.432;2023-09-19T09:19:15;25.40;99.90
37088;DHT22;23002;52.676;6.432;2023-09-19T09:21:51;25.30;99.90
37088;DHT22;23002;52.676;6.432;2023-09-19T09:24:28;25.60;99.90
37088;DHT22;23002;52.676;6.432;2023-09-19T09:27:03;26.30;99.90
37088;DHT22;23002;52.676;6.432;2023-09-19T09:29:45;25.80;99.90
37088;DHT22;23002;52.676;6.432;2023-09-19T09:32:30;25.30;99.90
37088;DHT22;23002;52.676;6.432;2023-09-19T09:35:07;24.90;99.90
37088;DHT22;23002;52.676;6.432;2023-09-19T09:37:37;24.20;99.90
37088;DHT22;23002;52.676;6.432;2023-09-19T09:40:05;24.40;99.90
37088;DHT22;23002;52.676;6.432;2023-09-19T09:42:42;24.40;99.90
37088;DHT22;23002;52.676;6.432;2023-09-19T09:45:23;24.40;99.90
37088;DHT22;23002;52.676;6.432;2023-09-19T09:48:02;24.00;99.90
37088;DHT22;23002;52.676;6.432;2023-09-19T09:50:48;24.00;99.90
37088;DHT22;23002;52.676;6.432;2023-09-19T09:53:28;23.60;99.90
37088;DHT22;23002;52.676;6.432;2023-09-19T09:56:03;23.10;99.90
37088;DHT22;23002;52.676;6.432;2023-09-19T09:58:37;23.80;99.90
37088;DHT22;23002;52.676;6.432;2023-09-19T10:01:07;24.00;99.90
37088;DHT22;23002;52.676;6.432;2023-09-19T10:03:41;24.20;99.90
37088;DHT22;23002;52.676;6.432;2023-09-19T10:06:12;24.20;99.90
37088;DHT22;23002;52.676;6.432;2023-09-19T10:09:10;23.70;99.90
37088;DHT22;23002;52.676;6.432;2023-09-19T10:11:44;23.70;99.90
37088;DHT22;23002;52.676;6.432;2023-09-19T10:14:13;23.60;99.90
37088;DHT22;23002;52.676;6.432;2023-09-19T10:16:48;23.70;99.90
37088;DHT22;23002;52.676;6.432;2023-09-19T10:19:20;23.70;99.90
37088;DHT22;23002;52.676;6.432;2023-09-19T10:21:50;23.70;99.90
37088;DHT22;23002;52.676;6.432;2023-09-19T10:24:18;22.90;99.90
37088;DHT22;23002;52.676;6.432;2023-09-19T10:26:45;23.00;99.90
37088;DHT22;23002;52.676;6.432;2023-09-19T10:31:44;22.10;99.90
37088;DHT22;23002;52.676;6.432;2023-09-19T10:34:15;23.30;99.90
37088;DHT22;23002;52.676;6.432;2023-09-19T10:36:45;23.30;99.90
37088;DHT22;23002;52.676;6.432;2023-09-19T10:39:16;23.10;99.90
37088;DHT22;23002;52.676;6.432;2023-09-19T10:41:50;23.30;99.90
37088;DHT22;23002;52.676;6.432;2023-09-19T10:44:24;23.10;99.90
37088;DHT22;23002;52.676;6.432;2023-09-19T10:46:55;23.20;99.90
37088;DHT22;23002;52.676;6.432;2023-09-19T10:49:23;23.00;99.90
37088;DHT22;23002;52.676;6.432;2023-09-19T10:51:55;22.50;99.90
37088;DHT22;23002;52.676;6.432;2023-09-19T10:54:28;22.10;99.90
37088;DHT22;23002;52.676;6.432;2023-09-19T10:56:56;21.40;99.90
37088;DHT22;23002;52.676;6.432;2023-09-19T10:59:26;21.30;99.90
37088;DHT22;23002;52.676;6.432;2023-09-19T11:02:16;21.70;99.90
37088;DHT22;23002;52.676;6.432;2023-09-19T11:04:44;22.20;99.90
37088;DHT22;23002;52.676;6.432;2023-09-19T11:07:15;22.20;99.90
37088;DHT22;23002;52.676;6.432;2023-09-19T11:15:08;22.90;99.90
37088;DHT22;23002;52.676;6.432;2023-09-19T11:30:43;24.00;99.90
37088;DHT22;23002;52.676;6.432;2023-09-19T11:33:26;23.90;99.90
37088;DHT22;23002;52.676;6.432;2023-09-19T11:36:08;23.90;99.90
37088;DHT22;23002;52.676;6.432;2023-09-19T11:46:27;23.70;99.90
37088;DHT22;23002;52.676;6.432;2023-09-19T11:51:40;23.20;99.90
37088;DHT22;23002;52.676;6.432;2023-09-19T11:54:13;22.60;99.90
37088;DHT22;23002;52.676;6.432;2023-09-19T11:56:50;22.20;99.90
37088;DHT22;23002;52.676;6.432;2023-09-19T11:59:21;22.10;99.90
37088;DHT22;23002;52.676;6.432;2023-09-19T12:01:53;21.70;99.90
37088;DHT22;23002;52.676;6.432;2023-09-19T12:09:39;22.10;99.90
37088;DHT22;23002;52.676;6.432;2023-09-19T12:12:07;22.60;99.90
37088;DHT22;23002;52.676;6.432;2023-09-19T12:14:35;22.40;99.90
37088;DHT22;23002;52.676;6.432;2023-09-19T12:17:03;22.20;99.90
37088;DHT22;23002;52.676;6.432;2023-09-19T12:19:30;22.20;99.90
37088;DHT22;23002;52.676;6.432;2023-09-19T12:22:02;22.10;99.90
37088;DHT22;23002;52.676;6.432;2023-09-19T12:24:33;22.10;99.90
37088;DHT22;23002;52.676;6.432;2023-09-19T12:27:03;22.40;99.90
37088;DHT22;23002;52.676;6.432;2023-09-19T12:29:48;22.30;99.90
37088;DHT22;23002;52.676;6.432;2023-09-19T12:32:35;22.50;99.90
37088;DHT22;23002;52.676;6.432;2023-09-19T12:40:08;23.00;99.90
37088;DHT22;23002;52.676;6.432;2023-09-19T12:45:17;23.60;99.90
37088;DHT22;23002;52.676;6.432;2023-09-19T12:51:04;23.60;99.90
37088;DHT22;23002;52.676;6.432;2023-09-19T12:56:12;23.50;99.90
37088;DHT22;23002;52.676;6.432;2023-09-19T12:58:53;23.50;99.90
37088;DHT22;23002;52.676;6.432;2023-09-19T13:01:23;23.10;99.90
37088;DHT22;23002;52.676;6.432;2023-09-19T13:04:14;22.90;99.90
37088;DHT22;23002;52.676;6.432;2023-09-19T13:06:52;22.60;99.90
37088;DHT22;23002;52.676;6.432;2023-09-19T13:09:21;22.70;99.90
37088;DHT22;23002;52.676;6.432;2023-09-19T13:11:49;22.70;99.90
37088;DHT22;23002;52.676;6.432;2023-09-19T13:14:22;22.30;99.90
37088;DHT22;23002;52.676;6.432;2023-09-19T13:17:09;22.10;99.90
37088;DHT22;23002;52.676;6.432;2023-09-19T13:19:51;21.90;99.90
37088;DHT22;23002;52.676;6.432;2023-09-19T13:25:14;21.90;99.90
37088;DHT22;23002;52.676;6.432;2023-09-19T13:30:12;21.60;99.90
37088;DHT22;23002;52.676;6.432;2023-09-19T13:32:40;21.60;99.90
37088;DHT22;23002;52.676;6.432;2023-09-19T13:35:07;21.60;99.90
37088;DHT22;23002;52.676;6.432;2023-09-19T13:37:38;21.20;99.90
37088;DHT22;23002;52.676;6.432;2023-09-19T13:40:12;21.20;99.90
37088;DHT22;23002;52.676;6.432;2023-09-19T13:45:08;21.30;99.90
37088;DHT22;23002;52.676;6.432;2023-09-19T13:57:33;22.10;99.90
37088;DHT22;23002;52.676;6.432;2023-09-19T14:00:00;22.20;99.90
37088;DHT22;23002;52.676;6.432;2023-09-19T14:14:48;22.00;99.90
37088;DHT22;23002;52.676;6.432;2023-09-19T15:19:19;21.70;99.90
37088;DHT22;23002;52.676;6.432;2023-09-19T15:21:46;21.60;99.90
37088;DHT22;23002;52.676;6.432;2023-09-19T15:24:12;21.40;99.90
37088;DHT22;23002;52.676;6.432;2023-09-19T15:26:39;21.20;99.90
37088;DHT22;23002;52.676;6.432;2023-09-19T15:29:09;20.70;99.90
37088;DHT22;23002;52.676;6.432;2023-09-19T15:31:36;20.70;99.90
37088;DHT22;23002;52.676;6.432;2023-09-19T15:34:04;20.80;99.90
37088;DHT22;23002;52.676;6.432;2023-09-19T15:36:33;20.70;99.90
37088;DHT22;23002;52.676;6.432;2023-09-19T15:39:04;20.50;99.90
37088;DHT22;23002;52.676;6.432;2023-09-19T15:41:34;20.60;99.90
37088;DHT22;23002;52.676;6.432;2023-09-19T15:44:02;20.60;99.90
37088;DHT22;23002;52.676;6.432;2023-09-19T15:46:32;20.70;99.90
37088;DHT22;23002;52.676;6.432;2023-09-19T15:49:03;20.60;99.90
37088;DHT22;23002;52.676;6.432;2023-09-19T15:51:30;20.50;99.90
37088;DHT22;23002;52.676;6.432;2023-09-19T15:53:57;20.60;99.90
37088;DHT22;23002;52.676;6.432;2023-09-19T15:56:26;20.60;99.90
37088;DHT22;23002;52.676;6.432;2023-09-19T15:58:54;20.70;99.90
37088;DHT22;23002;52.676;6.432;2023-09-19T16:01:22;20.90;99.90
37088;DHT22;23002;52.676;6.432;2023-09-19T16:03:51;20.80;99.90
37088;DHT22;23002;52.676;6.432;2023-09-19T16:06:21;20.60;99.90
37088;DHT22;23002;52.676;6.432;2023-09-19T16:08:52;20.50;99.90
37088;DHT22;23002;52.676;6.432;2023-09-19T16:11:20;20.50;99.90
37088;DHT22;23002;52.676;6.432;2023-09-19T16:13:49;20.60;99.90
37088;DHT22;23002;52.676;6.432;2023-09-19T16:16:18;20.50;99.90
37088;DHT22;23002;52.676;6.432;2023-09-19T16:18:52;20.40;99.90
37088;DHT22;23002;52.676;6.432;2023-09-19T16:21:22;20.30;99.90
37088;DHT22;23002;52.676;6.432;2023-09-19T16:23:50;20.30;99.90
37088;DHT22;23002;52.676;6.432;2023-09-19T16:26:18;20.40;99.90
37088;DHT22;23002;52.676;6.432;2023-09-19T16:28:49;20.40;99.90
37088;DHT22;23002;52.676;6.432;2023-09-19T16:31:16;20.30;99.90
37088;DHT22;23002;52.676;6.432;2023-09-19T16:33:45;20.10;99.90
37088;DHT22;23002;52.676;6.432;2023-09-19T16:36:17;19.90;99.90
37088;DHT22;23002;52.676;6.432;2023-09-19T16:38:45;19.80;99.90
37088;DHT22;23002;52.676;6.432;2023-09-19T16:41:13;19.80;99.90
37088;DHT22;23002;52.676;6.432;2023-09-19T16:43:41;19.70;99.90
37088;DHT22;23002;52.676;6.432;2023-09-19T16:46:09;19.50;99.90
37088;DHT22;23002;52.676;6.432;2023-09-19T16:48:40;19.50;99.90
37088;DHT22;23002;52.676;6.432;2023-09-19T16:51:27;19.50;99.90
37088;DHT22;23002;52.676;6.432;2023-09-19T16:53:56;19.60;99.90
37088;DHT22;23002;52.676;6.432;2023-09-19T16:56:23;19.40;99.90
37088;DHT22;23002;52.676;6.432;2023-09-19T16:58:50;19.60;99.90
37088;DHT22;23002;52.676;6.432;2023-09-19T17:01:19;19.70;99.90
37088;DHT22;23002;52.676;6.432;2023-09-19T17:03:47;19.70;99.90
37088;DHT22;23002;52.676;6.432;2023-09-19T17:06:16;19.60;99.90
37088;DHT22;23002;52.676;6.432;2023-09-19T17:08:44;19.80;99.90
37088;DHT22;23002;52.676;6.432;2023-09-19T17:11:16;19.80;99.90
37088;DHT22;23002;52.676;6.432;2023-09-19T17:13:45;19.80;99.90
37088;DHT22;23002;52.676;6.432;2023-09-19T17:16:16;19.60;99.90
37088;DHT22;23002;52.676;6.432;2023-09-19T17:18:45;19.60;99.90
37088;DHT22;23002;52.676;6.432;2023-09-19T17:21:17;19.70;99.90
37088;DHT22;23002;52.676;6.432;2023-09-19T17:23:44;19.60;99.90
37088;DHT22;23002;52.676;6.432;2023-09-19T17:26:13;19.50;99.90
37088;DHT22;23002;52.676;6.432;2023-09-19T17:28:41;19.30;99.90
37088;DHT22;23002;52.676;6.432;2023-09-19T17:31:13;19.50;99.90
37088;DHT22;23002;52.676;6.432;2023-09-19T17:33:45;19.30;99.90
37088;DHT22;23002;52.676;6.432;2023-09-19T17:36:15;19.40;99.90
37088;DHT22;23002;52.676;6.432;2023-09-19T17:38:44;19.20;99.90
37088;DHT22;23002;52.676;6.432;2023-09-19T17:41:12;19.30;99.90
37088;DHT22;23002;52.676;6.432;2023-09-19T17:43:43;19.40;99.90
37088;DHT22;23002;52.676;6.432;2023-09-19T17:46:13;19.70;99.90
37088;DHT22;23002;52.676;6.432;2023-09-19T17:48:43;19.50;99.90
37088;DHT22;23002;52.676;6.432;2023-09-19T17:51:11;19.60;99.90
37088;DHT22;23002;52.676;6.432;2023-09-19T17:53:40;19.60;99.90
37088;DHT22;23002;52.676;6.432;2023-09-19T17:56:12;19.30;99.90
37088;DHT22;23002;52.676;6.432;2023-09-19T17:58:43;19.20;99.90
37088;DHT22;23002;52.676;6.432;2023-09-19T18:01:16;19.00;99.90
37088;DHT22;23002;52.676;6.432;2023-09-19T18:03:47;18.90;99.90
37088;DHT22;23002;52.676;6.432;2023-09-19T18:06:15;18.80;99.90
37088;DHT22;23002;52.676;6.432;2023-09-19T18:08:45;18.60;99.90
37088;DHT22;23002;52.676;6.432;2023-09-19T18:11:14;18.60;99.90
37088;DHT22;23002;52.676;6.432;2023-09-19T18:13:48;18.40;99.90
37088;DHT22;23002;52.676;6.432;2023-09-19T18:16:18;18.40;99.90
37088;DHT22;23002;52.676;6.432;2023-09-19T18:18:46;18.30;99.90
37088;DHT22;23002;52.676;6.432;2023-09-19T18:21:16;18.40;99.90
37088;DHT22;23002;52.676;6.432;2023-09-19T18:23:53;18.30;99.90
37088;DHT22;23002;52.676;6.432;2023-09-19T18:26:20;18.20;99.90